createdAt,value
2022-08-07T00:01:44.256Z,102255.63
2022-08-07T00:04:05.292Z,102255.63
2022-08-07T00:06:33.396Z,102253.44
2022-08-07T00:09:16.660Z,102250.25
2022-08-07T00:11:55.572Z,102251.25
2022-08-07T00:14:25.433Z,102258.78
2022-08-07T00:16:52.504Z,102253.72
2022-08-07T00:19:21.621Z,102251.31
2022-08-07T00:21:57.335Z,102254.41
2022-08-07T00:24:28.925Z,102245.63
2022-08-07T00:27:07.339Z,102237.47
2022-08-07T00:29:37.144Z,102247.59
2022-08-07T00:32:05.876Z,102250.00
2022-08-07T00:34:33.434Z,102254.38
2022-08-07T00:37:02.744Z,102245.59
2022-08-07T00:39:33.431Z,102248.50
2022-08-07T00:42:02.107Z,102242.91
2022-08-07T00:44:38.375Z,102246.78
2022-08-07T00:47:15.678Z,102230.97
2022-08-07T00:50:21.252Z,102235.63
2022-08-07T00:52:42.146Z,102241.56
2022-08-07T00:55:13.835Z,102236.78
2022-08-07T00:57:55.436Z,102237.00
2022-08-07T01:00:23.643Z,102242.13
2022-08-07T01:02:50.869Z,102235.28
2022-08-07T01:05:19.981Z,102239.94
2022-08-07T01:07:51.289Z,102240.09
2022-08-07T01:10:18.779Z,102237.41
2022-08-07T01:12:53.826Z,102242.84
2022-08-07T01:16:00.808Z,102231.69
2022-08-07T01:18:17.777Z,102243.22
2022-08-07T01:20:57.198Z,102234.28
2022-08-07T01:23:34.666Z,102245.19
2022-08-07T01:26:12.051Z,102238.81
2022-08-07T01:28:46.014Z,102236.91
2022-08-07T01:31:20.039Z,102235.00
2022-08-07T01:33:55.566Z,102238.88
2022-08-07T01:36:33.942Z,102226.72
2022-08-07T01:39:10.544Z,102229.00
2022-08-07T01:42:07.134Z,102237.63
2022-08-07T01:44:31.502Z,102240.38
2022-08-07T01:47:01.025Z,102235.09
2022-08-07T01:49:32.036Z,102227.44
2022-08-07T01:52:04.770Z,102228.09
2022-08-07T01:54:39.634Z,102215.97
2022-08-07T01:57:24.570Z,102228.75
2022-08-07T02:00:01.996Z,102223.19
2022-08-07T02:03:12.247Z,102220.50
2022-08-07T02:05:48.350Z,102223.72
2022-08-07T02:08:27.844Z,102227.88
2022-08-07T02:10:58.594Z,102224.38
2022-08-07T02:13:57.247Z,102216.22
2022-08-07T02:16:19.939Z,102212.22
2022-08-07T02:19:02.279Z,102207.91
2022-08-07T02:21:56.145Z,102203.94
2022-08-07T02:24:22.883Z,102197.25
2022-08-07T02:26:50.915Z,102208.28
2022-08-07T02:29:21.924Z,102199.50
2022-08-07T02:31:50.419Z,102199.00
2022-08-07T02:34:18.449Z,102200.47
2022-08-07T02:36:52.185Z,102206.72
2022-08-07T02:39:43.543Z,102197.41
2022-08-07T02:42:10.269Z,102201.75
2022-08-07T02:44:45.824Z,102200.47
2022-08-07T02:47:29.309Z,102205.59
2022-08-07T02:50:11.413Z,102194.75
2022-08-07T02:52:48.862Z,102194.44
2022-08-07T02:55:28.094Z,102196.19
2022-08-07T02:58:11.719Z,102193.00
2022-08-07T03:00:42.009Z,102191.56
2022-08-07T03:03:22.644Z,102190.94
2022-08-07T03:05:56.137Z,102189.81
2022-08-07T03:08:26.834Z,102196.38
2022-08-07T03:10:58.874Z,102194.94
2022-08-07T03:13:39.190Z,102196.25
2022-08-07T03:16:18.439Z,102196.72
2022-08-07T03:18:51.041Z,102206.31
2022-08-07T03:21:19.277Z,102198.63
2022-08-07T03:24:19.218Z,102197.50
2022-08-07T03:26:36.106Z,102193.84
2022-08-07T03:29:19.699Z,102202.16
2022-08-07T03:31:51.535Z,102199.91
2022-08-07T03:34:22.483Z,102195.16
2022-08-07T03:36:53.623Z,102199.59
2022-08-07T03:39:46.416Z,102193.22
2022-08-07T03:42:12.268Z,102201.50
2022-08-07T03:44:39.893Z,102208.22
2022-08-07T03:47:11.215Z,102201.69
2022-08-07T03:49:40.466Z,102200.25
2022-08-07T03:52:22.426Z,102204.72
2022-08-07T03:54:55.056Z,102201.19
2022-08-07T03:58:34.089Z,102205.38
2022-08-07T04:00:14.313Z,102204.72
2022-08-07T04:02:47.585Z,102208.22
2022-08-07T04:05:39.398Z,102203.13
2022-08-07T04:08:12.752Z,102212.53
2022-08-07T04:10:43.577Z,102203.59
2022-08-07T04:13:22.963Z,102220.06
2022-08-07T04:15:54.609Z,102217.66
2022-08-07T04:18:57.003Z,102206.78
2022-08-07T04:21:07.942Z,102221.97
2022-08-07T04:23:43.724Z,102213.00
2022-08-07T04:26:28.665Z,102224.50
2022-08-07T04:28:56.520Z,102222.91
2022-08-07T04:31:39.043Z,102226.25
2022-08-07T04:34:16.754Z,102226.44
2022-08-07T04:36:45.373Z,102217.47
2022-08-07T04:39:16.063Z,102230.56
2022-08-07T04:41:48.297Z,102224.97
2022-08-07T04:44:19.421Z,102230.38
2022-08-07T04:47:08.194Z,102226.72
2022-08-07T04:49:58.026Z,102232.78
2022-08-07T04:52:59.609Z,102230.19
2022-08-07T04:58:14.296Z,102218.22
2022-08-07T04:59:17.198Z,102236.25
2022-08-07T05:01:57.296Z,102232.75
2022-08-07T05:04:29.950Z,102237.53
2022-08-07T05:07:20.503Z,102237.53
2022-08-07T05:10:00.916Z,102233.38
2022-08-07T05:12:37.710Z,102235.47
2022-08-07T05:15:21.696Z,102244.88
2022-08-07T05:18:00.671Z,102234.31
2022-08-07T05:20:39.710Z,102245.66
2022-08-07T05:23:31.106Z,102251.41
2022-08-07T05:26:11.670Z,102243.94
2022-08-07T05:28:48.503Z,102243.94
2022-08-07T05:31:19.759Z,102246.81
2022-08-07T05:34:04.791Z,102247.97
2022-08-07T05:36:36.834Z,102250.00
2022-08-07T05:40:17.085Z,102254.34
2022-08-07T05:42:07.374Z,102249.41
2022-08-07T05:44:46.479Z,102249.25
2022-08-07T05:47:21.376Z,102247.34
2022-08-07T05:50:06.599Z,102254.69
2022-08-07T05:52:33.252Z,102247.03
2022-08-07T05:55:10.247Z,102243.53
2022-08-07T05:57:42.426Z,102241.00
2022-08-07T06:00:15.968Z,102241.59
2022-08-07T06:02:53.052Z,102240.19
2022-08-07T06:05:25.807Z,102230.75
2022-08-07T06:08:13.499Z,102233.00
2022-08-07T06:10:46.457Z,102230.25
2022-08-07T06:13:18.726Z,102235.06
2022-08-07T06:15:59.226Z,102226.78
2022-08-07T06:18:30.641Z,102226.59
2022-08-07T06:22:15.158Z,102226.75
2022-08-07T06:24:45.945Z,102235.25
2022-08-07T06:26:33.179Z,102235.06
2022-08-07T06:29:01.213Z,102230.91
2022-08-07T06:31:38.817Z,102240.47
2022-08-07T06:34:20.859Z,102231.38
2022-08-07T06:36:51.955Z,102236.94
2022-08-07T06:40:15.906Z,102242.09
2022-08-07T06:42:33.110Z,102242.41
2022-08-07T06:45:24.037Z,102247.00
2022-08-07T06:48:01.881Z,102246.84
2022-08-07T06:50:39.263Z,102246.22
2022-08-07T06:53:49.359Z,102248.44
2022-08-07T06:56:01.349Z,102241.38
2022-08-07T06:58:32.165Z,102246.84
2022-08-07T07:01:08.791Z,102243.00
2022-08-07T07:03:47.871Z,102247.63
2022-08-07T07:06:23.903Z,102230.81
2022-08-07T07:08:53.906Z,102250.97
2022-08-07T07:12:08.495Z,102238.47
2022-08-07T07:14:10.057Z,102241.00
2022-08-07T07:16:49.993Z,102241.63
2022-08-07T07:19:57.442Z,102242.22
2022-08-07T07:22:36.193Z,102241.56
2022-08-07T07:26:31.716Z,102241.72
2022-08-07T07:28:42.326Z,102238.84
2022-08-07T07:31:44.527Z,102236.69
2022-08-07T07:34:18.149Z,102235.53
2022-08-07T07:36:47.790Z,102251.66
2022-08-07T07:39:22.605Z,102248.13
2022-08-07T07:42:08.751Z,102240.59
2022-08-07T07:44:43.925Z,102242.31
2022-08-07T07:47:23.005Z,102237.66
2022-08-07T07:50:32.964Z,102238.09
2022-08-07T07:52:41.855Z,102237.41
2022-08-07T07:55:09.435Z,102236.44
2022-08-07T07:57:52.082Z,102225.84
2022-08-07T08:00:29.949Z,102219.06
2022-08-07T08:03:07.972Z,102218.50
2022-08-07T08:05:53.847Z,102226.06
2022-08-07T08:08:34.624Z,102215.41
2022-08-07T08:11:04.640Z,102223.41
2022-08-07T08:13:36.756Z,102212.75
2022-08-07T08:16:20.744Z,102207.59
2022-08-07T08:18:56.519Z,102200.06
2022-08-07T08:22:00.518Z,102211.69
2022-08-07T08:24:51.980Z,102204.03
2022-08-07T08:27:36.929Z,102204.25
2022-08-07T08:30:07.816Z,102201.34
2022-08-07T08:32:48.512Z,102212.81
2022-08-07T08:35:21.962Z,102211.53
2022-08-07T08:38:00.861Z,102205.06
2022-08-07T08:40:33.915Z,102205.63
2022-08-07T08:43:08.692Z,102212.03
2022-08-07T08:46:00.528Z,102201.38
2022-08-07T08:48:58.626Z,102205.66
2022-08-07T08:52:12.816Z,102190.50
2022-08-07T08:54:44.002Z,102197.84
2022-08-07T08:57:30.124Z,102198.47
2022-08-07T09:00:05.719Z,102193.91
2022-08-07T09:02:57.567Z,102190.00
2022-08-07T09:05:45.513Z,102188.22
2022-08-07T09:08:36.009Z,102186.69
2022-08-07T09:11:24.710Z,102189.19
2022-08-07T09:14:19.479Z,102195.03
2022-08-07T09:17:10.322Z,102189.84
2022-08-07T09:20:34.750Z,102187.25
2022-08-07T09:24:54.914Z,102188.34
2022-08-07T09:26:27.796Z,102184.69
2022-08-07T09:30:06.371Z,102188.22
2022-08-07T09:32:27.192Z,102184.63
2022-08-07T09:36:04.017Z,102185.19
2022-08-07T09:38:12.052Z,102179.00
2022-08-07T09:41:19.353Z,102182.94
2022-08-07T09:44:06.264Z,102171.38
2022-08-07T09:47:50.389Z,102164.19
2022-08-07T09:49:59.812Z,102162.59
2022-08-07T09:52:36.950Z,102149.78
2022-08-07T09:56:02.348Z,102158.25
2022-08-07T09:58:32.399Z,102157.16
2022-08-07T10:01:50.280Z,102154.63
2022-08-07T10:04:33.680Z,102139.94
2022-08-07T10:07:24.487Z,102142.13
2022-08-07T10:10:21.836Z,102144.09
2022-08-07T10:13:03.661Z,102147.53
2022-08-07T10:16:12.415Z,102135.44
2022-08-07T10:19:18.964Z,102141.81
2022-08-07T10:22:15.466Z,102137.41
2022-08-07T10:25:13.589Z,102129.78
2022-08-07T10:28:17.740Z,102131.94
2022-08-07T10:31:06.043Z,102119.34
2022-08-07T10:34:06.390Z,102130.69
2022-08-07T10:36:59.012Z,102120.97
2022-08-07T10:40:02.704Z,102120.03
2022-08-07T10:42:56.922Z,102123.41
2022-08-07T10:45:44.389Z,102116.38
2022-08-07T10:48:35.146Z,102122.16
2022-08-07T10:51:39.188Z,102112.50
2022-08-07T10:54:20.624Z,102094.09
2022-08-07T10:57:06.640Z,102102.31
2022-08-07T10:59:47.732Z,102103.38
2022-08-07T11:02:33.410Z,102106.78
2022-08-07T11:05:48.831Z,102102.41
2022-08-07T11:08:30.454Z,102095.63
2022-08-07T11:11:13.938Z,102083.53
2022-08-07T11:14:45.031Z,102090.94
2022-08-07T11:16:52.756Z,102085.41
2022-08-07T11:19:36.299Z,102075.47
2022-08-07T11:22:33.286Z,102073.13
2022-08-07T11:25:25.672Z,102065.75
2022-08-07T11:28:04.775Z,102066.84
2022-08-07T11:30:45.591Z,102067.94
2022-08-07T11:33:58.647Z,102077.19
2022-08-07T11:36:39.933Z,102066.69
2022-08-07T11:39:19.296Z,102063.00
2022-08-07T11:42:03.343Z,102059.59
2022-08-07T11:44:36.535Z,102052.50
2022-08-07T11:47:22.823Z,102053.56
2022-08-07T11:50:31.455Z,102056.16
2022-08-07T11:53:18.280Z,102039.31
2022-08-07T11:56:09.555Z,102045.66
2022-08-07T12:00:07.996Z,102048.31
2022-08-07T12:02:31.224Z,102041.47
2022-08-07T12:05:28.575Z,102044.13
2022-08-07T12:08:34.811Z,102045.75
2022-08-07T12:11:21.009Z,102044.13
2022-08-07T12:14:08.312Z,102041.78
2022-08-07T12:16:41.676Z,102036.00
2022-08-07T12:19:21.435Z,102039.69
2022-08-07T12:22:37.563Z,102029.69
2022-08-07T12:25:10.392Z,102032.84
2022-08-07T12:28:08.471Z,102027.81
2022-08-07T12:30:40.748Z,102027.59
2022-08-07T12:33:28.162Z,102023.63
2022-08-07T12:35:58.996Z,102018.34
2022-08-07T12:38:42.524Z,102022.28
2022-08-07T12:41:11.453Z,102020.47
2022-08-07T12:44:03.011Z,102026.25
2022-08-07T12:46:32.723Z,102008.84
2022-08-07T12:49:44.174Z,102010.41
2022-08-07T12:52:19.128Z,102013.34
2022-08-07T12:55:03.513Z,102011.50
2022-08-07T12:57:39.081Z,101992.75
2022-08-07T13:00:32.639Z,101987.75
2022-08-07T13:03:27.489Z,101986.94
2022-08-07T13:06:17.002Z,101995.66
2022-08-07T13:10:20.354Z,101990.38
2022-08-07T13:12:18.898Z,101988.50
2022-08-07T13:14:56.926Z,101987.97
2022-08-07T13:17:44.021Z,101983.50
2022-08-07T13:20:30.824Z,101985.06
2022-08-07T13:23:59.986Z,101980.84
2022-08-07T13:26:15.962Z,101971.59
2022-08-07T13:29:11.007Z,101972.91
2022-08-07T13:31:46.109Z,101974.47
2022-08-07T13:34:44.806Z,101965.00
2022-08-07T13:37:38.457Z,101970.84
2022-08-07T13:40:33.722Z,101970.03
2022-08-07T13:43:11.914Z,101967.63
2022-08-07T13:46:11.224Z,101962.38
2022-08-07T13:48:34.119Z,101968.19
2022-08-07T13:51:26.754Z,101968.97
2022-08-07T13:54:00.919Z,101954.16
2022-08-07T13:56:35.516Z,101943.84
2022-08-07T13:59:12.610Z,101953.38
2022-08-07T14:02:08.415Z,101952.03
2022-08-07T14:04:56.683Z,101944.09
2022-08-07T14:07:28.564Z,101944.56
2022-08-07T14:10:02.784Z,101944.06
2022-08-07T14:12:54.691Z,101946.16
2022-08-07T14:15:35.071Z,101951.69
2022-08-07T14:18:16.085Z,101942.72
2022-08-07T14:21:21.018Z,101943.22
2022-08-07T14:24:02.188Z,101944.53
2022-08-07T14:26:35.836Z,101941.38
2022-08-07T14:30:04.803Z,101943.22
2022-08-07T14:31:57.730Z,101946.66
2022-08-07T14:34:30.015Z,101937.34
2022-08-07T14:37:02.017Z,101930.47
2022-08-07T14:40:18.232Z,101936.56
2022-08-07T14:42:31.555Z,101932.28
2022-08-07T14:45:21.381Z,101930.69
2022-08-07T14:47:50.017Z,101934.16
2022-08-07T14:50:20.377Z,101935.19
2022-08-07T14:52:47.848Z,101915.63
2022-08-07T14:55:18.110Z,101923.53
2022-08-07T14:57:58.326Z,101932.00
2022-08-07T15:00:31.053Z,101926.41
2022-08-07T15:05:55.169Z,101931.94
2022-08-07T15:08:49.967Z,101929.28
2022-08-07T15:11:53.481Z,101929.00
2022-08-07T15:14:19.699Z,101932.97
2022-08-07T15:16:59.051Z,101922.94
2022-08-07T15:20:31.178Z,101935.84
2022-08-07T15:25:18.171Z,101934.56
2022-08-07T15:28:32.930Z,101922.63
2022-08-07T15:30:36.522Z,101929.22
2022-08-07T15:33:33.497Z,101923.72
2022-08-07T15:36:05.217Z,101930.59
2022-08-07T15:38:59.023Z,101928.16
2022-08-07T15:42:43.799Z,101915.97
2022-08-07T15:44:17.208Z,101919.94
2022-08-07T15:46:52.578Z,101913.84
2022-08-07T15:52:17.039Z,101903.31
2022-08-07T15:54:49.457Z,101903.78
2022-08-07T15:57:39.419Z,101901.66
2022-08-07T16:00:32.030Z,101899.72
2022-08-07T16:03:01.258Z,101906.63
2022-08-07T16:05:31.185Z,101895.50
2022-08-07T16:08:33.218Z,101883.03
2022-08-07T16:10:59.950Z,101900.47
2022-08-07T16:13:59.404Z,101886.69
2022-08-07T16:16:48.222Z,101883.91
2022-08-07T16:19:42.171Z,101884.41
2022-08-07T16:22:55.395Z,101879.06
2022-08-07T16:25:52.392Z,101891.44
2022-08-07T16:30:06.723Z,101879.19
2022-08-07T16:31:57.900Z,101879.94
2022-08-07T16:34:27.921Z,101885.16
2022-08-07T16:38:04.284Z,101887.22
2022-08-07T16:40:28.623Z,101877.03
2022-08-07T16:44:06.131Z,101873.25
2022-08-07T16:47:04.502Z,101863.13
2022-08-07T16:50:20.185Z,101877.38
2022-08-07T16:52:57.582Z,101879.41
2022-08-07T16:55:46.982Z,101878.03
2022-08-07T16:59:02.310Z,101878.50
2022-08-07T17:01:34.461Z,101882.44
2022-08-07T17:04:36.929Z,101875.25
2022-08-07T17:07:55.445Z,101883.06
2022-08-07T17:10:34.744Z,101883.84
2022-08-07T17:13:40.410Z,101879.59
2022-08-07T17:16:39.468Z,101885.69
2022-08-07T17:20:03.020Z,101881.75
2022-08-07T17:22:45.502Z,101879.13
2022-08-07T17:25:45.686Z,101888.34
2022-08-07T17:28:14.513Z,101884.38
2022-08-07T17:31:16.903Z,101886.53
2022-08-07T17:34:15.570Z,101897.34
2022-08-07T17:36:57.565Z,101890.50
2022-08-07T17:39:58.402Z,101893.94
2022-08-07T17:42:59.767Z,101893.22
2022-08-07T17:45:35.032Z,101894.50
2022-08-07T17:48:11.094Z,101892.38
2022-08-07T17:50:54.067Z,101898.19
2022-08-07T17:54:06.034Z,101889.00
2022-08-07T17:56:49.809Z,101879.94
2022-08-07T17:59:25.420Z,101887.63
2022-08-07T18:02:14.652Z,101894.25
2022-08-07T18:05:20.849Z,101892.38
2022-08-07T18:08:03.122Z,101889.84
2022-08-07T18:12:06.612Z,101895.19
2022-08-07T18:13:54.026Z,101886.38
2022-08-07T18:16:57.891Z,101887.19
2022-08-07T18:21:10.964Z,101886.69
2022-08-07T18:22:35.265Z,101892.50
2022-08-07T18:25:24.338Z,101890.47
2022-08-07T18:28:34.400Z,101892.66
2022-08-07T18:31:18.436Z,101893.44
2022-08-07T18:34:39.380Z,101892.16
2022-08-07T18:37:12.743Z,101897.22
2022-08-07T18:40:18.524Z,101904.13
2022-08-07T18:43:03.580Z,101897.53
2022-08-07T18:46:21.937Z,101904.44
2022-08-07T18:50:05.626Z,101903.97
2022-08-07T18:52:35.399Z,101905.84
2022-08-07T18:54:54.926Z,101908.03
2022-08-07T18:57:37.062Z,101913.09
2022-08-07T19:00:32.747Z,101908.66
2022-08-07T19:03:11.971Z,101924.84
2022-08-07T19:06:03.205Z,101917.44
2022-08-07T19:08:59.790Z,101918.06
2022-08-07T19:11:37.405Z,101919.94
2022-08-07T19:14:26.263Z,101932.63
2022-08-07T19:17:06.973Z,101924.44
2022-08-07T19:19:53.442Z,101924.50
2022-08-07T19:22:31.466Z,101936.16
2022-08-07T19:25:05.467Z,101932.19
2022-08-07T19:28:58.069Z,101938.91
2022-08-07T19:31:00.550Z,101945.25
2022-08-07T19:33:13.084Z,101939.19
2022-08-07T19:35:43.698Z,101943.19
2022-08-07T19:38:16.074Z,101956.72
2022-08-07T19:40:50.729Z,101945.34
2022-08-07T19:43:49.137Z,101951.47
2022-08-07T19:46:11.008Z,101947.28
2022-08-07T19:48:54.005Z,101958.66
2022-08-07T19:51:50.535Z,101953.69
2022-08-07T19:54:29.924Z,101952.41
2022-08-07T19:58:01.509Z,101950.84
2022-08-07T19:59:51.613Z,101961.97
2022-08-07T20:02:29.819Z,101952.78
2022-08-07T20:05:00.294Z,101955.94
2022-08-07T20:07:45.804Z,101957.56
2022-08-07T20:10:36.615Z,101964.97
2022-08-07T20:13:22.721Z,101964.75
2022-08-07T20:15:54.784Z,101967.41
2022-08-07T20:18:33.702Z,101961.63
2022-08-07T20:21:20.846Z,101971.41
2022-08-07T20:24:00.477Z,101966.41
2022-08-07T20:26:38.753Z,101968.00
2022-08-07T20:29:17.112Z,101963.03
2022-08-07T20:32:03.832Z,101971.75
2022-08-07T20:34:50.015Z,101969.13
2022-08-07T20:37:23.221Z,101969.69
2022-08-07T20:40:03.655Z,101964.13
2022-08-07T20:42:33.719Z,101964.44
2022-08-07T20:45:04.376Z,101970.81
2022-08-07T20:47:56.482Z,101973.97
2022-08-07T20:50:26.395Z,101969.78
2022-08-07T20:52:52.997Z,101973.44
2022-08-07T20:55:23.826Z,101968.69
2022-08-07T20:58:02.688Z,101967.41
2022-08-07T21:00:44.388Z,101971.88
2022-08-07T21:03:16.065Z,101974.00
2022-08-07T21:06:00.803Z,101982.19
2022-08-07T21:08:38.158Z,101975.88
2022-08-07T21:11:12.304Z,101967.16
2022-08-07T21:14:16.595Z,101967.94
2022-08-07T21:16:56.387Z,101971.91
2022-08-07T21:19:32.166Z,101976.38
2022-08-07T21:22:16.658Z,101974.53
2022-08-07T21:25:29.204Z,101976.94
2022-08-07T21:28:47.532Z,101974.53
2022-08-07T21:31:18.165Z,101977.19
2022-08-07T21:34:07.216Z,101967.69
2022-08-07T21:36:50.126Z,101971.38
2022-08-07T21:39:46.104Z,101965.03
2022-08-07T21:42:46.098Z,101976.13
2022-08-07T21:46:07.767Z,101975.06
2022-08-07T21:48:42.418Z,101982.41
2022-08-07T21:51:25.039Z,101975.81
2022-08-07T21:53:54.978Z,101975.28
2022-08-07T21:56:48.032Z,101977.63
2022-08-07T22:00:04.183Z,101973.94
